Latest Weather Observations for Liawenee

IDT60801

Issued at 11:35 pm EST Monday 1 September 2014 (issued every 30 minutes, with the page automatically refreshed every 10 minutes)

About weather observations | Map of weather stations | Latest weather observations for TAS | Other Formats
Station Details ID: 096033 Name: LIAWENEE Lat: -41.90 Lon: 146.67 Height: 1057.0 m
Data from the previous 72 hours. | See also: Recent months at Liawenee
Date/Time
EST
Temp
°C
App
Temp
°C
Dew
Point
Rel
Hum
%
Delta-T
°C
Wind Press
QNH
hPa
Press
MSL
hPa
Rain
since 9 am
mm
Dir
 
Spd
km/h
Gust
km/h
Spd
kts
Gust
kts
01/11:30pm 0.6 -5.1 0.3 98 0.1 S 20 32 11 17 1009.2 1010.4 10.2
01/11:00pm 0.5 -5.3 0.2 98 0.1 S 20 30 11 16 1009.0 1010.2 10.2
01/10:30pm 0.5 -6.1 -0.2 95 0.3 S 24 35 13 19 1009.0 1010.2 10.2
01/10:00pm 1.2 -3.1 0.9 98 0.1 S 13 17 7 9 1008.5 1009.7 10.2
01/09:30pm 1.5 -4.1 0.9 96 0.2 S 20 32 11 17 1008.2 1009.4 10.2
01/09:00pm 1.7 -3.4 1.0 95 0.3 S 17 26 9 14 1008.0 1009.1 10.2
01/08:30pm 1.3 -2.6 0.9 97 0.2 SSW 11 15 6 8 1007.7 1008.8 10.2
01/08:00pm 2.0 -3.0 1.6 97 0.2 SW 17 20 9 11 1007.3 1008.5 10.2
01/07:30pm 2.3 -2.6 2.0 98 0.1 S 17 26 9 14 1006.9 1008.0 10.2
01/07:00pm 2.4 -3.4 2.1 98 0.1 SSW 22 32 12 17 1006.0 1007.1 10.0
01/06:30pm 2.7 -3.8 2.4 98 0.1 SSW 26 35 14 19 1005.5 1006.6 10.0
01/06:00pm 2.9 -3.2 2.5 97 0.2 SW 24 37 13 20 1005.0 1006.1 10.0
01/05:30pm 3.7 -1.6 3.1 96 0.3 SW 20 28 11 15 1004.3 1005.4 10.0
01/05:00pm 4.2 -1.4 3.5 95 0.3 SW 22 28 12 15 1003.9 1004.9 10.0
01/04:30pm 4.8 -0.3 3.9 94 0.4 SW 20 30 11 16 1003.3 1004.4 10.0
01/04:00pm 5.0 -0.4 4.4 96 0.3 WSW 22 30 12 16 1003.0 1004.0 10.0
01/03:30pm 5.3 -0.6 4.0 91 0.6 SW 24 33 13 18 1002.3 1003.3 10.0
01/03:00pm 5.0 -0.1 4.0 93 0.5 WSW 20 28 11 15 1002.2 1003.2 10.0
01/02:30pm 4.9 0.7 4.0 94 0.4 WSW 15 20 8 11 1002.0 1003.0 10.0
01/02:00pm 4.5 -0.1 3.6 94 0.4 WSW 17 26 9 14 1002.0 1003.0 10.0
01/01:30pm 4.7 -0.2 4.0 95 0.3 W 19 24 10 13 1002.0 1003.0 9.4
01/01:00pm 4.8 0.2 3.9 94 0.4 W 17 28 9 15 1002.1 1003.1 7.8
01/12:30pm 6.2 1.8 5.0 92 0.6 NW 17 28 9 15 1002.0 1003.0 4.2
01/12:00pm 6.3 1.0 5.1 92 0.6 NNW 22 39 12 21 1001.9 1002.9 2.8
01/11:30am 6.5 1.2 5.0 90 0.7 NNW 22 39 12 21 1002.0 1003.0 2.6
01/11:00am 6.4 -0.1 4.7 89 0.8 NNW 28 46 15 25 1002.3 1003.3 2.2
01/10:30am 6.2 -1.1 4.5 89 0.8 NNW 32 50 17 27 1002.7 1003.7 1.8
01/10:00am 6.4 -0.8 5.0 91 0.7 NNW 32 54 17 29 1002.9 1003.9 1.2
01/09:44am 6.5 0.1 5.0 90 0.7 NNW 28 48 15 26 1002.9 1004.6 1.0
01/09:30am 6.1 0.0 4.9 92 0.6 NNW 26 50 14 27 1003.1 1004.8 0.6
01/09:00am 6.0 -1.0 4.3 89 0.8 NNW 30 54 16 29 1003.4 1005.1 2.4
01/08:30am 6.1 -1.4 4.4 89 0.8 NNW 33 56 18 30 1003.9 1005.6 1.6
01/08:00am 6.3 -2.0 4.3 87 0.9 NNW 37 61 20 33 1003.9 1005.6 1.4
01/07:30am 6.3 -1.0 4.6 89 0.8 NNW 32 54 17 29 1003.9 1005.6 0.8
01/07:00am 6.3 -0.9 4.8 90 0.7 NNW 32 56 17 30 1004.2 1005.9 0.6
01/06:30am 6.4 -0.9 4.7 89 0.8 NNW 32 61 17 33 1004.5 1006.3 0.4
01/06:00am 6.4 -0.4 4.9 90 0.7 NNW 30 54 16 29 1004.7 1006.4 0.0
01/05:30am 6.6 -0.7 4.6 87 0.9 NNW 32 50 17 27 1004.9 1006.6 0.0
01/05:00am 6.8 -0.1 4.5 85 1.1 NW 30 54 16 29 1005.4 1007.2 0.0
01/04:47am 6.9 0.4 4.6 85 1.1 NW 28 50 15 27 1005.5 1007.3 0.0
01/04:30am 6.7 1.0 4.7 87 0.9 NNW 24 46 13 25 1005.4 1007.2 0.0
01/04:14am 6.7 0.3 5.0 89 0.8 NNW 28 46 15 25 1005.5 1007.3 0.0
01/04:00am 6.6 0.6 5.1 90 0.7 NNW 26 43 14 23 1005.8 1007.5 0.0
01/03:30am 6.6 1.3 4.9 89 0.8 NNW 22 35 12 19 1006.0 1007.7 0.0
01/03:00am 6.7 0.3 5.0 89 0.8 NNW 28 54 15 29 1006.7 1008.4 0.0
01/02:30am 6.6 1.0 5.2 91 0.7 NNW 24 39 13 21 1006.7 1008.4 0.0
01/02:00am 6.6 0.2 5.2 91 0.7 N 28 50 15 27 1007.2 1009.0 0.0
01/01:43am 6.6 0.1 4.8 88 0.8 N 28 52 15 28 1007.5 1009.3 0.0
01/01:30am 6.8 1.0 4.3 84 1.2 N 24 46 13 25 1007.8 1009.6 0.0
01/01:00am 6.4 2.4 4.7 89 0.8 N 15 26 8 14 1008.4 1010.2 0.0
01/12:30am 6.4 1.6 4.9 90 0.7 N 19 32 10 17 1009.1 1010.9 0.0
01/12:00am 6.2 1.8 5.0 92 0.6 N 17 30 9 16 1009.6 1011.5 0.0
 
Date/Time
EST
Temp
°C
App
Temp
°C
Dew
Point
Rel
Hum
%
Delta-T
°C
Wind Press
QNH
hPa
Press
MSL
hPa
Rain
since 9 am
mm
Dir
 
Spd
km/h
Gust
km/h
Spd
kts
Gust
kts
31/11:30pm 6.1 0.4 5.1 93 0.5 N 24 35 13 19 1009.8 1011.6 0.0
31/11:00pm 6.1 1.2 5.1 93 0.5 N 20 35 11 19 1009.8 1011.6 0.0
31/10:30pm 6.3 1.4 4.9 91 0.7 N 20 41 11 22 1010.3 1012.2 0.0
31/10:00pm 6.5 1.5 4.8 89 0.8 N 20 39 11 21 1011.1 1013.0 0.0
31/09:30pm 6.7 1.7 4.4 85 1.1 N 20 39 11 21 1011.3 1013.2 0.0
31/09:00pm 6.7 0.8 3.9 82 1.3 N 24 41 13 22 1011.3 1013.2 0.0
31/08:30pm 6.8 1.3 3.9 82 1.3 N 22 37 12 20 1011.4 1013.3 0.0
31/08:00pm 7.9 1.9 3.4 73 2.1 N 24 43 13 23 1011.4 1013.3 0.0
31/07:30pm 7.2 1.6 3.4 77 1.7 NNW 22 33 12 18 1011.6 1013.5 0.0
31/07:00pm 7.5 1.6 3.7 77 1.7 NNW 24 43 13 23 1011.8 1013.7 0.0
31/06:30pm 6.9 1.4 4.0 82 1.3 N 22 37 12 20 1012.0 1013.9 0.0
31/06:00pm 6.7 2.2 4.2 84 1.2 NNW 17 35 9 19 1012.1 1014.0 0.0
31/05:30pm 7.1 2.0 4.2 82 1.3 NNW 20 33 11 18 1012.3 1014.2 0.0
31/05:00pm 7.7 2.7 4.5 80 1.5 NNW 20 35 11 19 1012.3 1014.2 0.0
31/04:30pm 7.8 2.5 5.1 83 1.3 NNW 22 35 12 19 1012.4 1014.3 0.0
31/04:00pm 8.3 3.1 5.4 82 1.4 NW 22 37 12 20 1012.7 1014.7 0.0
31/03:30pm 9.1 3.4 5.1 76 1.9 NNW 24 39 13 21 1013.0 1014.9 0.0
31/03:00pm 9.8 5.6 5.6 75 2.0 N 17 35 9 19 1013.1 1015.0 0.0
31/02:30pm 8.9 4.6 5.3 78 1.7 N 17 30 9 16 1014.0 1015.9 0.0
31/02:00pm 8.6 4.6 5.0 78 1.7 N 15 24 8 13 1014.3 1016.3 0.0
31/01:30pm 8.5 4.5 4.7 77 1.8 N 15 24 8 13 1014.5 1016.5 0.0
31/01:00pm 8.7 3.9 4.5 75 2.0 NNW 19 28 10 15 1015.0 1017.0 0.0
31/12:30pm 9.5 6.4 5.5 76 1.9 NNW 11 20 6 11 1015.4 1017.4 0.0
31/12:00pm 8.8 4.3 4.4 74 2.1 NNW 17 30 9 16 1016.0 1018.0 0.0
31/11:30am 8.4 3.6 4.4 76 1.9 NNW 19 30 10 16 1016.3 1018.3 0.0
31/11:00am 8.6 3.4 3.8 72 2.2 NW 20 41 11 22 1016.4 1018.4 0.0
31/10:30am 8.9 5.1 4.1 72 2.2 N 13 22 7 12 1016.8 1018.9 0.0
31/10:00am 8.6 5.0 4.8 77 1.8 NNW 13 24 7 13 1017.3 1019.3 0.0
31/09:30am 7.6 3.1 4.4 80 1.5 N 17 30 9 16 1017.4 1019.5 0.0
31/09:00am 6.4 1.8 3.7 83 1.2 NNW 17 35 9 19 1017.5 1019.6 0.0
31/08:30am 5.8 2.4 4.1 89 0.8 N 11 26 6 14 1017.6 1019.7 0.0
31/08:00am 4.6 1.5 3.4 92 0.5 ENE 9 15 5 8 1017.7 1019.8 0.0
31/07:30am 4.2 1.4 3.2 93 0.4 E 7 15 4 8 1017.6 1019.7 0.0
31/07:00am 3.5 0.5 2.3 92 0.5 ENE 7 9 4 5 1017.6 1019.7 0.0
31/06:30am 3.6 0.3 2.4 92 0.5 ENE 9 15 5 8 1017.4 1019.5 0.0
31/06:00am 3.2 -0.2 1.9 91 0.5 E 9 13 5 7 1017.5 1019.6 0.0
31/05:30am 3.7 0.8 2.4 91 0.6 ENE 7 15 4 8 1017.5 1019.6 0.0
31/05:00am 3.4 0.0 2.1 91 0.5 E 9 13 5 7 1017.5 1019.6 0.0
31/04:30am 3.3 -0.4 2.1 92 0.5 E 11 17 6 9 1017.4 1019.5 0.0
31/04:00am 3.1 -0.2 2.2 94 0.4 NE 9 13 5 7 1017.8 1019.9 0.0
31/03:30am 2.7 -0.3 1.7 93 0.4 ENE 7 11 4 6 1018.2 1020.3 0.0
31/03:00am 2.9 -1.3 1.9 93 0.4 E 13 19 7 10 1018.3 1020.4 0.0
31/02:30am 2.9 -0.5 1.9 93 0.4 N 9 17 5 9 1019.0 1021.1 0.0
31/02:00am 2.0 -1.5 1.3 95 0.3 NNE 9 15 5 8 1019.3 1021.4 0.0
31/01:30am 1.6 -1.5 0.3 91 0.5 N 6 17 3 9 1019.6 1021.7 0.0
31/01:00am 2.0 -1.6 0.7 91 0.5 NNE 9 13 5 7 1020.0 1022.1 0.0
31/12:30am 2.3 -4.1 1.0 91 0.5 NE 24 33 13 18 1020.0 1022.1 0.0
31/12:00am 2.2 -2.5 1.0 92 0.5 ENE 15 20 8 11 1020.1 1022.2 0.0
 
Date/Time
EST
Temp
°C
App
Temp
°C
Dew
Point
Rel
Hum
%
Delta-T
°C
Wind Press
QNH
hPa
Press
MSL
hPa
Rain
since 9 am
mm
Dir
 
Spd
km/h
Gust
km/h
Spd
kts
Gust
kts
30/11:30pm 1.8 -3.9 0.6 92 0.5 ENE 20 26 11 14 1020.2 1022.3 0.0
30/11:00pm 1.6 -2.8 0.6 93 0.4 ENE 13 19 7 10 1020.8 1023.0 0.0
30/10:30pm 1.2 -2.4 0.3 94 0.4 NE 9 13 5 7 1021.6 1023.8 0.0
30/10:00pm 1.5 -2.5 0.2 91 0.5 NNE 11 20 6 11 1022.3 1024.5 0.0
30/09:30pm -0.2 -4.0 -0.9 95 0.3 NE 9 13 5 7 1022.4 1024.6 0.0
30/09:00pm -0.5 -4.0 -1.6 92 0.4 NNE 7 9 4 5 1022.5 1024.7 0.0
30/08:30pm 1.2 -2.2 -0.7 87 0.7 NNE 7 11 4 6 1022.7 1024.9 0.0
30/08:00pm 2.5 -1.2 0.2 85 0.9 N 9 13 5 7 1022.6 1024.8 0.0
30/07:30pm 3.3 -0.2 1.2 86 0.9 N 9 20 5 11 1022.6 1024.8 0.0
30/07:00pm 4.2 -0.3 2.1 86 0.9 NNE 15 20 8 11 1022.5 1024.7 0.0
30/06:30pm 4.8 1.5 2.5 85 1.0 N 9 19 5 10 1022.7 1024.9 0.0
30/06:00pm 5.3 1.3 2.8 84 1.1 N 13 24 7 13 1022.6 1024.8 0.0
30/05:30pm 6.3 2.4 3.3 81 1.3 NNE 13 24 7 13 1022.9 1025.1 0.0
30/05:00pm 6.6 1.9 2.9 77 1.6 N 17 24 9 13 1023.3 1025.5 0.0
30/04:30pm 7.1 3.1 2.8 74 1.9 N 13 20 7 11 1023.6 1025.8 0.0
30/04:00pm 7.1 3.1 3.0 75 1.8 N 13 24 7 13 1023.7 1025.9 0.0
30/03:30pm 7.7 3.4 3.4 74 2.0 NW 15 20 8 11 1023.7 1025.9 0.0
30/03:00pm 7.8 2.7 3.3 73 2.0 WNW 19 26 10 14 1024.2 1026.4 0.0
30/02:30pm 7.2 2.8 2.9 74 1.9 NNW 15 24 8 13 1024.4 1026.6 0.0
30/02:00pm 7.1 3.2 3.2 76 1.7 NNW 13 24 7 13 1024.6 1026.9 0.0
30/01:30pm 6.9 2.2 3.0 76 1.7 NNW 17 30 9 16 1024.7 1027.0 0.0
30/01:00pm 7.0 2.9 4.5 84 1.2 N 15 26 8 14 1024.9 1027.2 0.0
30/12:30pm 7.2 2.7 4.0 80 1.5 N 17 28 9 15 1025.2 1027.4 0.0
30/12:00pm 7.1 2.2 4.1 81 1.4 N 19 28 10 15 1025.6 1027.9 0.0
30/11:30am 7.1 2.5 3.5 78 1.6 N 17 24 9 13 1025.9 1028.2 0.0
30/11:00am 6.7 2.4 3.1 78 1.6 N 15 24 8 13 1026.3 1028.6 0.0
30/10:30am 5.7 1.7 2.7 81 1.3 N 13 24 7 13 1026.7 1029.0 0.0
30/10:00am 5.3 1.4 3.2 86 0.9 N 13 24 7 13 1027.2 1029.5 0.0
30/09:30am 4.9 0.9 2.9 87 0.9 N 13 20 7 11 1027.4 1029.7 0.0
30/09:00am 4.4 -0.4 2.8 89 0.7 N 17 24 9 13 1027.6 1029.9 0.0
30/08:30am 4.1 0.6 3.4 95 0.3 N 11 17 6 9 1027.8 1030.1 0.0
30/08:00am 2.1 -0.7 2.0 99 0.0 N 6 9 3 5 1027.8 1030.1 0.0
30/07:30am -0.4 -3.6 -0.4 100 0.0 N 6 11 3 6 1027.6 1029.9 0.0
30/07:00am -0.9 -4.7 -0.9 100 0.0 NNE 9 13 5 7 1027.6 1029.9 0.0
30/06:30am -4.1 -7.0 -4.5 97 0.0 WSW 2 9 1 5 1027.6 1029.9 0.0
30/06:00am -3.7 -6.2 -4.0 98 -0.1 CALM 0 0 0 0 1027.4 1029.7 0.0
30/05:30am -3.4 -5.8 -3.5 99 -0.1 CALM 0 0 0 0 1027.3 1029.6 0.0
30/05:00am -3.3 -6.1 -3.6 98 0.0 W 2 7 1 4 1027.5 1029.8 0.0
30/04:30am -3.2 -6.8 -3.5 98 0.0 W 6 7 3 4 1027.5 1029.8 0.0
30/04:00am -3.2 -6.0 -3.3 99 -0.1 W 2 6 1 3 1027.5 1029.8 0.0
30/03:30am -3.1 -6.3 -3.4 98 0.0 NNE 4 7 2 4 1027.7 1030.0 0.0
30/03:00am -1.9 -5.5 -2.0 99 -0.1 NNE 7 11 4 6 1027.8 1030.1 0.0
30/02:30am -2.2 -5.6 -2.3 99 -0.1 N 6 9 3 5 1028.3 1030.6 0.0
30/02:00am -3.1 -5.6 -3.6 96 0.0 CALM 0 6 0 3 1028.5 1030.8 0.0
30/01:30am -2.2 -4.5 -2.3 99 -0.1 CALM 0 2 0 1 1028.8 1031.2 0.0
30/01:00am -1.8 -4.4 -1.9 99 0.0 W 2 7 1 4 1028.8 1031.2 0.0
30/12:30am -1.9 -5.3 -2.0 99 -0.1 W 6 9 3 5 1028.9 1031.3 0.0
30/12:00am -1.3 -3.5 -1.4 99 0.0 CALM 0 6 0 3 1028.9 1031.3 0.0

Other Formats:

Comma delimited format used in spreadsheet applications
http://www.bom.gov.au/fwo/IDT60801/IDT60801.95959.axf

JavaScript Object Notation format (JSON) in row-major order
http://www.bom.gov.au/fwo/IDT60801/IDT60801.95959.json